KJHN

Stanton County Municipal Airport

Johnson, Kansas, USA
METAR KJHN 201955Z AUTO 35011G16KT 7SM CLR 25/02 A3017 RMK AO2 T02450016
Observed Flight Rules
Aug-20 @ 19:55 UTC (33 minutes ago) Visual Flight Rules
Wind Visibility Clouds
350° at 11 knots
 Gusting to 16 knots
7 miles
  • Clear skies
Temperatures Readings
Current 25°C / 77°F
Dewpoint 2°C / 36°F
Humidity 22%
Altimeter 30.17" Hg
Pressure 1022 hPa
Elevation 1013
METAR KJHN 201955Z AUTO 35011G16KT 7SM CLR 25/02 A3017 RMK AO2 T02450016
Observed Flight Rules
Aug-20 @ 19:55 UTC
(33 minutes ago)
VFR
Wind Visibility
350° at 11 knots
 Gusting to 16 knots
7 miles
Clouds
  • Clear skies
Temperature Dewpoint
25°C / 77°F 2°C / 36°F
Humidity Altimeter Pressure
22% 30.17" Hg 1022 hPa